Time;durP1;ratioP1;P1;durP2;ratioP2;P2;SDS_P1;SDS_P2;PMS_P1;PMS_P2;Temp;Humidity;BMP_temperature;BMP_pressure;BME280_temperature;BME280_humidity;BME280_pressure;Samples;Min_cycle;Max_cycle;Signal;HPM_P1;HPM_P2
2022/03/09 00:01:41;;;;;;;45.05;25.65;;;;;;;;;;5010999;28;20025;-64
2022/03/09 00:04:06;;;;;;;40.95;24.10;;;;;;;;;;5011227;28;20018;-64
2022/03/09 00:06:32;;;;;;;44.22;23.67;;;;;;;;;;5010868;28;20040;-64
2022/03/09 00:08:58;;;;;;;41.63;23.02;;;;;;;;;;5011115;28;20490;-64
2022/03/09 00:11:23;;;;;;;39.28;22.80;;;;;;;;;;5010792;28;20088;-64
2022/03/09 00:13:49;;;;;;;41.03;23.27;;;;;;;;;;5010980;28;20030;-64
2022/03/09 00:16:14;;;;;;;41.33;22.50;;;;;;;;;;5010462;28;20782;-65
2022/03/09 00:18:40;;;;;;;39.95;22.83;;;;;;;;;;5011023;28;20080;-64
2022/03/09 00:21:05;;;;;;;41.90;22.60;;;;;;;;;;5011001;28;20406;-64
2022/03/09 00:23:31;;;;;;;37.85;21.63;;;;;;;;;;5010846;28;20528;-65
2022/03/09 00:25:56;;;;;;;40.63;22.15;;;;;;;;;;5010934;28;20029;-65
2022/03/09 00:28:22;;;;;;;40.72;22.02;;;;;;;;;;5010523;28;20025;-64
2022/03/09 00:30:47;;;;;;;38.78;21.60;;;;;;;;;;5010639;28;20032;-64
2022/03/09 00:33:13;;;;;;;41.03;21.10;;;;;;;;;;5010314;28;20168;-64
2022/03/09 00:35:39;;;;;;;37.30;20.85;;;;;;;;;;5010559;28;20042;-64
2022/03/09 00:38:05;;;;;;;41.00;20.85;;;;;;;;;;5010747;28;20473;-64
2022/03/09 00:40:30;;;;;;;34.90;20.13;;;;;;;;;;5010738;28;20034;-64
2022/03/09 00:42:56;;;;;;;35.13;20.23;;;;;;;;;;5010484;28;20026;-64
2022/03/09 00:45:22;;;;;;;35.88;20.10;;;;;;;;;;5010427;28;20030;-64
2022/03/09 00:47:47;;;;;;;34.85;19.77;;;;;;;;;;5010109;28;20100;-64
2022/03/09 00:50:13;;;;;;;35.60;19.63;;;;;;;;;;5010352;28;20608;-64
2022/03/09 00:52:38;;;;;;;40.90;19.73;;;;;;;;;;5010025;28;20045;-63
2022/03/09 00:55:05;;;;;;;34.08;19.35;;;;;;;;;;5009611;28;20024;-65
2022/03/09 00:57:31;;;;;;;33.40;19.52;;;;;;;;;;5009935;28;20113;-64
2022/03/09 00:59:56;;;;;;;33.33;18.95;;;;;;;;;;5010322;28;20546;-64
2022/03/09 01:02:21;;;;;;;31.83;18.27;;;;;;;;;;5010047;28;20488;-64
2022/03/09 01:04:47;;;;;;;33.63;18.42;;;;;;;;;;5010558;28;20032;-64
2022/03/09 01:07:12;;;;;;;35.75;18.38;;;;;;;;;;5009808;28;20493;-65
2022/03/09 01:09:38;;;;;;;34.35;18.33;;;;;;;;;;5010138;28;20120;-64
2022/03/09 01:12:04;;;;;;;32.53;18.25;;;;;;;;;;5010025;28;20445;-64
2022/03/09 01:14:29;;;;;;;30.58;18.23;;;;;;;;;;5010609;28;20466;-65
2022/03/09 01:16:55;;;;;;;39.33;18.65;;;;;;;;;;5009882;28;20457;-64
2022/03/09 01:19:20;;;;;;;30.98;18.08;;;;;;;;;;5010414;28;20076;-64
2022/03/09 01:21:46;;;;;;;32.70;18.63;;;;;;;;;;5010169;28;20049;-64
2022/03/09 01:24:11;;;;;;;34.17;17.85;;;;;;;;;;5009690;28;20022;-64
2022/03/09 01:26:37;;;;;;;32.70;18.85;;;;;;;;;;5010010;28;20100;-64
2022/03/09 01:29:03;;;;;;;33.55;19.58;;;;;;;;;;5010042;28;20022;-64
2022/03/09 01:31:29;;;;;;;31.48;18.23;;;;;;;;;;5010110;28;20474;-64
2022/03/09 01:33:54;;;;;;;30.67;17.42;;;;;;;;;;5010118;28;20062;-64
2022/03/09 01:36:20;;;;;;;35.03;17.52;;;;;;;;;;5010005;28;20494;-63
2022/03/09 01:38:45;;;;;;;33.00;18.10;;;;;;;;;;5009542;28;20026;-64
2022/03/09 01:41:11;;;;;;;32.13;17.35;;;;;;;;;;5009947;28;20058;-65
2022/03/09 01:43:38;;;;;;;34.17;17.27;;;;;;;;;;5009675;28;20054;-64
2022/03/09 01:46:04;;;;;;;29.30;17.58;;;;;;;;;;5009873;28;20533;-64
2022/03/09 01:48:29;;;;;;;30.83;17.77;;;;;;;;;;5009523;28;20030;-65
2022/03/09 01:50:55;;;;;;;30.17;16.40;;;;;;;;;;5009994;28;20496;-64
2022/03/09 01:53:20;;;;;;;31.13;16.33;;;;;;;;;;5009556;28;20343;-64
2022/03/09 01:55:46;;;;;;;32.53;17.65;;;;;;;;;;5009827;28;20052;-64
2022/03/09 01:58:11;;;;;;;30.42;16.20;;;;;;;;;;5009301;28;20109;-64
2022/03/09 02:00:37;;;;;;;32.75;17.17;;;;;;;;;;5009890;28;20030;-65
2022/03/09 02:03:03;;;;;;;28.00;16.27;;;;;;;;;;5009594;28;20425;-64
2022/03/09 02:05:28;;;;;;;32.17;17.23;;;;;;;;;;5009814;28;20026;-64
2022/03/09 02:10:39;;;;;;;28.17;16.52;;;;;;;;;;5013697;28;20048;-64
2022/03/09 02:13:06;;;;;;;28.90;16.30;;;;;;;;;;5012736;28;20034;-66
2022/03/09 02:15:32;;;;;;;30.65;16.85;;;;;;;;;;5013113;28;20477;-64
2022/03/09 02:17:59;;;;;;;29.27;17.13;;;;;;;;;;5011392;28;20076;-64
2022/03/09 02:20:25;;;;;;;30.98;16.73;;;;;;;;;;5013228;28;20068;-63
2022/03/09 02:22:53;;;;;;;33.90;16.80;;;;;;;;;;5012972;28;20018;-64
2022/03/09 02:25:19;;;;;;;29.52;16.77;;;;;;;;;;5013181;28;20037;-64
2022/03/09 02:27:45;;;;;;;33.50;17.75;;;;;;;;;;5012959;28;20072;-64
2022/03/09 02:30:13;;;;;;;27.35;16.65;;;;;;;;;;5012612;28;20385;-65
2022/03/09 02:32:45;;;;;;;29.58;16.63;;;;;;;;;;5012715;28;20474;-65
2022/03/09 02:35:11;;;;;;;27.05;15.65;;;;;;;;;;5012461;28;20117;-65
2022/03/09 02:37:38;;;;;;;30.35;16.10;;;;;;;;;;5012690;28;20042;-64
2022/03/09 02:40:07;;;;;;;30.05;16.88;;;;;;;;;;5012578;28;20061;-64
2022/03/09 02:42:33;;;;;;;31.88;17.23;;;;;;;;;;5012723;28;20041;-64
2022/03/09 02:44:58;;;;;;;30.20;17.10;;;;;;;;;;5012440;28;20037;-64
2022/03/09 02:47:24;;;;;;;29.77;16.55;;;;;;;;;;5012355;28;20022;-65
2022/03/09 02:49:49;;;;;;;28.08;16.55;;;;;;;;;;5012587;28;20030;-64
2022/03/09 02:52:16;;;;;;;25.88;16.20;;;;;;;;;;5012387;28;20026;-66
2022/03/09 02:54:41;;;;;;;29.98;16.67;;;;;;;;;;5012324;28;20452;-65
2022/03/09 02:57:07;;;;;;;30.20;16.55;;;;;;;;;;5012598;28;20042;-64
2022/03/09 02:59:33;;;;;;;30.15;16.90;;;;;;;;;;5012189;28;20414;-65
2022/03/09 03:01:58;;;;;;;32.17;16.73;;;;;;;;;;5012695;28;20041;-64
2022/03/09 03:04:24;;;;;;;29.95;16.23;;;;;;;;;;5012208;28;20390;-66
2022/03/09 03:06:49;;;;;;;26.42;16.40;;;;;;;;;;5012270;28;20018;-64
2022/03/09 03:09:15;;;;;;;26.70;16.00;;;;;;;;;;5011640;28;20393;-64
2022/03/09 03:11:40;;;;;;;29.73;16.17;;;;;;;;;;5012077;28;20053;-63
2022/03/09 03:14:06;;;;;;;29.85;16.20;;;;;;;;;;5011923;28;20080;-64
2022/03/09 03:16:31;;;;;;;29.20;16.77;;;;;;;;;;5012058;28;20088;-64
2022/03/09 03:18:57;;;;;;;27.33;15.85;;;;;;;;;;5010836;28;20516;-64
2022/03/09 03:21:22;;;;;;;26.67;15.10;;;;;;;;;;5011971;28;20032;-64
2022/03/09 03:23:48;;;;;;;26.92;15.65;;;;;;;;;;5011790;28;20025;-64
2022/03/09 03:26:13;;;;;;;29.65;16.38;;;;;;;;;;5012250;28;20022;-64
2022/03/09 03:28:39;;;;;;;30.05;16.30;;;;;;;;;;5011530;28;20033;-64
2022/03/09 03:31:06;;;;;;;26.20;15.43;;;;;;;;;;5011680;28;20378;-65
2022/03/09 03:33:31;;;;;;;28.30;16.27;;;;;;;;;;5011520;28;20484;-64
2022/03/09 03:35:57;;;;;;;28.02;16.77;;;;;;;;;;5011692;28;20521;-64
2022/03/09 03:38:22;;;;;;;32.20;16.45;;;;;;;;;;5011451;28;20425;-64
2022/03/09 03:40:49;;;;;;;28.73;16.20;;;;;;;;;;5011545;28;20030;-64
2022/03/09 03:43:15;;;;;;;29.00;16.00;;;;;;;;;;5011467;28;20371;-64
2022/03/09 03:45:40;;;;;;;29.42;15.65;;;;;;;;;;5011071;28;20036;-64
2022/03/09 03:48:06;;;;;;;31.05;15.48;;;;;;;;;;5011331;28;20482;-64
2022/03/09 03:50:32;;;;;;;27.73;15.27;;;;;;;;;;5011357;28;20061;-64
2022/03/09 03:52:58;;;;;;;26.23;15.98;;;;;;;;;;5011331;28;20498;-64
2022/03/09 03:55:23;;;;;;;29.52;15.63;;;;;;;;;;5011111;28;20017;-64
2022/03/09 03:57:48;;;;;;;31.23;15.55;;;;;;;;;;5010923;28;20021;-63
2022/03/09 04:00:14;;;;;;;28.08;16.45;;;;;;;;;;5010792;28;20116;-64
2022/03/09 04:02:40;;;;;;;27.30;15.63;;;;;;;;;;5011166;28;20032;-64
2022/03/09 04:05:06;;;;;;;28.27;15.30;;;;;;;;;;5011070;28;20026;-64
2022/03/09 04:07:32;;;;;;;28.88;15.80;;;;;;;;;;5011291;28;20026;-64
2022/03/09 04:09:58;;;;;;;28.30;15.80;;;;;;;;;;5010798;28;20488;-65
2022/03/09 04:12:24;;;;;;;25.83;15.05;;;;;;;;;;5010835;28;20029;-64
2022/03/09 04:14:50;;;;;;;27.35;15.80;;;;;;;;;;5010589;28;20490;-64
2022/03/09 04:17:15;;;;;;;27.58;15.10;;;;;;;;;;5011094;28;20030;-65
2022/03/09 04:19:41;;;;;;;30.75;15.98;;;;;;;;;;5010428;28;20114;-64
2022/03/09 04:22:06;;;;;;;28.33;15.30;;;;;;;;;;5011007;28;20029;-64
2022/03/09 04:24:32;;;;;;;29.85;15.80;;;;;;;;;;5010940;28;20022;-63
2022/03/09 04:26:57;;;;;;;26.20;15.55;;;;;;;;;;5010857;28;20404;-64
2022/03/09 04:29:23;;;;;;;28.85;14.82;;;;;;;;;;5010260;28;20109;-64
2022/03/09 04:31:48;;;;;;;28.35;15.93;;;;;;;;;;5010460;28;20029;-64
2022/03/09 04:34:13;;;;;;;25.02;14.52;;;;;;;;;;5010398;28;20046;-64
2022/03/09 04:36:39;;;;;;;24.90;14.95;;;;;;;;;;5010813;28;20030;-64
2022/03/09 04:39:05;;;;;;;27.17;14.07;;;;;;;;;;5010553;28;20044;-64
2022/03/09 04:41:31;;;;;;;28.08;15.07;;;;;;;;;;5010616;28;20109;-64
2022/03/09 04:43:57;;;;;;;25.77;14.45;;;;;;;;;;5010451;28;20050;-64
2022/03/09 04:46:23;;;;;;;29.13;15.05;;;;;;;;;;5010574;28;20041;-64
2022/03/09 04:48:49;;;;;;;28.33;14.20;;;;;;;;;;5010211;28;20549;-65
2022/03/09 04:51:18;;;;;;;27.88;14.75;;;;;;;;;;5010187;28;20088;-63
2022/03/09 04:53:43;;;;;;;26.38;14.60;;;;;;;;;;5010367;28;20037;-64
2022/03/09 04:56:09;;;;;;;26.30;14.05;;;;;;;;;;5010192;28;20036;-64
2022/03/09 04:58:34;;;;;;;26.45;15.07;;;;;;;;;;5010693;28;20033;-64
2022/03/09 05:01:00;;;;;;;24.63;14.68;;;;;;;;;;5009984;28;20032;-64
2022/03/09 05:03:25;;;;;;;25.77;14.45;;;;;;;;;;5010328;28;20022;-64
2022/03/09 05:05:51;;;;;;;26.52;14.95;;;;;;;;;;5009990;28;20037;-64
2022/03/09 05:08:16;;;;;;;26.95;15.00;;;;;;;;;;5010121;28;20026;-64
2022/03/09 05:10:41;;;;;;;26.60;14.60;;;;;;;;;;5010005;28;20018;-64
2022/03/09 05:13:07;;;;;;;26.35;14.65;;;;;;;;;;5010246;28;20034;-64
2022/03/09 05:15:32;;;;;;;26.17;14.32;;;;;;;;;;5010096;28;20105;-65
2022/03/09 05:17:58;;;;;;;27.77;14.68;;;;;;;;;;5010193;28;20022;-64
2022/03/09 05:20:24;;;;;;;24.00;14.20;;;;;;;;;;5009990;28;20050;-64
2022/03/09 05:22:50;;;;;;;32.67;15.00;;;;;;;;;;5010119;28;20076;-64
2022/03/09 05:25:17;;;;;;;26.60;14.55;;;;;;;;;;5009830;28;20502;-64
2022/03/09 05:27:42;;;;;;;30.52;15.35;;;;;;;;;;5010141;28;20038;-64
2022/03/09 05:30:09;;;;;;;28.58;15.00;;;;;;;;;;5009589;28;20030;-64
2022/03/09 05:32:35;;;;;;;27.83;14.73;;;;;;;;;;5010150;28;20038;-64
2022/03/09 05:35:01;;;;;;;26.55;14.98;;;;;;;;;;5009732;28;20057;-64
2022/03/09 05:37:28;;;;;;;27.20;15.38;;;;;;;;;;5009852;28;20038;-64
2022/03/09 05:39:54;;;;;;;29.17;15.45;;;;;;;;;;5010016;28;20377;-64
2022/03/09 05:42:19;;;;;;;26.52;15.00;;;;;;;;;;5011971;28;20508;-64
2022/03/09 05:44:45;;;;;;;28.95;15.50;;;;;;;;;;5013626;28;20030;-65
2022/03/09 05:47:10;;;;;;;28.10;14.85;;;;;;;;;;5013584;28;20026;-64
2022/03/09 05:49:36;;;;;;;25.95;14.35;;;;;;;;;;5013813;28;20037;-63
2022/03/09 05:52:01;;;;;;;27.20;15.05;;;;;;;;;;5013367;28;20032;-64
2022/03/09 05:54:27;;;;;;;25.20;14.45;;;;;;;;;;5013600;28;20053;-64
2022/03/09 05:56:52;;;;;;;29.83;15.57;;;;;;;;;;5013286;28;20084;-63
2022/03/09 05:59:18;;;;;;;33.80;16.17;;;;;;;;;;5013258;28;20026;-64
2022/03/09 06:01:43;;;;;;;27.60;15.05;;;;;;;;;;5013265;28;20044;-64
2022/03/09 06:04:09;;;;;;;27.65;15.05;;;;;;;;;;5013505;28;20034;-64
2022/03/09 06:06:34;;;;;;;29.63;14.95;;;;;;;;;;5013304;28;20084;-64
2022/03/09 06:09:00;;;;;;;31.38;15.35;;;;;;;;;;5013349;28;20088;-64
2022/03/09 06:11:25;;;;;;;27.15;15.35;;;;;;;;;;5012851;28;20088;-64
2022/03/09 06:13:51;;;;;;;28.00;14.95;;;;;;;;;;5013129;28;20021;-63
2022/03/09 06:16:16;;;;;;;27.02;15.00;;;;;;;;;;5012834;28;20053;-64
2022/03/09 06:18:42;;;;;;;31.17;15.60;;;;;;;;;;5013028;28;20022;-64
2022/03/09 06:21:07;;;;;;;28.45;15.25;;;;;;;;;;5012836;28;20030;-64
2022/03/09 06:23:33;;;;;;;29.75;15.80;;;;;;;;;;5013204;28;20115;-64
2022/03/09 06:25:59;;;;;;;29.80;16.10;;;;;;;;;;5012761;28;20433;-64
2022/03/09 06:28:25;;;;;;;29.95;15.27;;;;;;;;;;5013256;28;20033;-64
2022/03/09 06:30:50;;;;;;;32.20;16.90;;;;;;;;;;5012918;28;20056;-64
2022/03/09 06:33:16;;;;;;;31.70;16.52;;;;;;;;;;5013000;28;20036;-64
2022/03/09 06:35:41;;;;;;;26.88;15.65;;;;;;;;;;5012620;28;20372;-64
2022/03/09 06:38:07;;;;;;;28.33;16.27;;;;;;;;;;5012815;28;20589;-64
2022/03/09 06:40:32;;;;;;;28.85;16.33;;;;;;;;;;5012692;28;20030;-64
2022/03/09 06:42:59;;;;;;;30.55;16.92;;;;;;;;;;5012555;28;20030;-64
2022/03/09 06:45:28;;;;;;;33.55;17.05;;;;;;;;;;5012750;28;20037;-64
2022/03/09 06:47:54;;;;;;;30.52;16.10;;;;;;;;;;5007618;28;20512;-63
2022/03/09 06:50:19;;;;;;;33.75;16.13;;;;;;;;;;5008316;28;20041;-64
2022/03/09 06:52:45;;;;;;;31.23;16.25;;;;;;;;;;4997272;28;20273;-63
2022/03/09 06:55:12;;;;;;;30.42;16.27;;;;;;;;;;4992902;28;20029;-64
2022/03/09 06:57:38;;;;;;;31.42;15.80;;;;;;;;;;4992766;28;20034;-63
2022/03/09 07:00:12;;;;;;;35.10;16.52;;;;;;;;;;4992552;28;20085;-64
2022/03/09 07:02:39;;;;;;;29.00;15.93;;;;;;;;;;4991461;28;20097;-64
2022/03/09 07:05:05;;;;;;;34.42;16.08;;;;;;;;;;4992654;28;20031;-64
2022/03/09 07:07:32;;;;;;;31.17;15.60;;;;;;;;;;4992515;28;20426;-64
2022/03/09 07:09:58;;;;;;;30.38;16.00;;;;;;;;;;4992449;28;20501;-64
2022/03/09 07:12:23;;;;;;;30.02;15.88;;;;;;;;;;4992816;28;20032;-64
2022/03/09 07:14:49;;;;;;;27.67;15.18;;;;;;;;;;4992627;28;20434;-64
2022/03/09 07:17:14;;;;;;;30.23;15.68;;;;;;;;;;4992254;28;20034;-64
2022/03/09 07:19:40;;;;;;;33.47;15.75;;;;;;;;;;4992360;28;20026;-65
2022/03/09 07:22:06;;;;;;;30.95;15.13;;;;;;;;;;4992157;28;20410;-65
2022/03/09 07:24:32;;;;;;;30.52;16.00;;;;;;;;;;4992331;28;20486;-63
2022/03/09 07:26:58;;;;;;;32.78;17.17;;;;;;;;;;4992195;28;20030;-64
2022/03/09 07:29:23;;;;;;;29.58;16.15;;;;;;;;;;4992389;28;20370;-63
2022/03/09 07:31:49;;;;;;;29.73;15.60;;;;;;;;;;4991892;28;20490;-65
2022/03/09 07:34:15;;;;;;;29.10;16.20;;;;;;;;;;4992041;28;20053;-65
2022/03/09 07:36:41;;;;;;;34.22;16.27;;;;;;;;;;4992426;28;20042;-65
2022/03/09 07:39:06;;;;;;;32.17;16.42;;;;;;;;;;4991868;28;20050;-64
2022/03/09 07:41:32;;;;;;;32.33;16.83;;;;;;;;;;4991903;28;20037;-64
2022/03/09 07:43:57;;;;;;;36.03;18.17;;;;;;;;;;4992586;28;20030;-65
2022/03/09 07:46:23;;;;;;;33.42;17.35;;;;;;;;;;4991835;28;20096;-65
2022/03/09 07:48:48;;;;;;;36.83;16.88;;;;;;;;;;4991874;28;20034;-64
2022/03/09 07:51:13;;;;;;;31.33;16.27;;;;;;;;;;4991802;28;20026;-65
2022/03/09 07:53:42;;;;;;;31.75;16.52;;;;;;;;;;4995624;28;20026;-64
2022/03/09 07:56:12;;;;;;;28.42;16.13;;;;;;;;;;5009237;28;20068;-64
2022/03/09 07:58:38;;;;;;;37.05;16.92;;;;;;;;;;4991271;28;20026;-65
2022/03/09 08:01:04;;;;;;;28.75;16.20;;;;;;;;;;4990828;28;20497;-65
2022/03/09 08:03:30;;;;;;;29.20;16.13;;;;;;;;;;4990335;28;20030;-65
2022/03/09 08:05:55;;;;;;;31.83;15.88;;;;;;;;;;4991134;28;20022;-65
2022/03/09 08:08:21;;;;;;;34.70;16.85;;;;;;;;;;4991217;28;20145;-65
2022/03/09 08:10:46;;;;;;;34.58;16.38;;;;;;;;;;4991212;28;20026;-65
2022/03/09 08:13:12;;;;;;;35.22;16.65;;;;;;;;;;4991159;28;20045;-65
2022/03/09 08:15:37;;;;;;;31.90;16.90;;;;;;;;;;4990994;28;20482;-65
2022/03/09 08:18:04;;;;;;;34.33;17.02;;;;;;;;;;4990974;28;20068;-65
2022/03/09 08:20:30;;;;;;;32.92;16.75;;;;;;;;;;4991282;28;20383;-65
2022/03/09 08:22:55;;;;;;;34.38;16.70;;;;;;;;;;4990935;28;20059;-65
2022/03/09 08:25:21;;;;;;;32.78;17.15;;;;;;;;;;4991433;28;20266;-65
2022/03/09 08:27:46;;;;;;;29.75;17.52;;;;;;;;;;4990917;28;20022;-65
2022/03/09 08:30:12;;;;;;;33.00;17.13;;;;;;;;;;4990750;28;20230;-65
2022/03/09 08:32:37;;;;;;;30.27;16.27;;;;;;;;;;4990632;28;20026;-65
2022/03/09 08:35:03;;;;;;;39.13;17.83;;;;;;;;;;4990854;28;20050;-65
2022/03/09 08:37:29;;;;;;;33.80;16.88;;;;;;;;;;4990862;28;20022;-65
2022/03/09 08:39:54;;;;;;;37.80;17.50;;;;;;;;;;4991081;28;20363;-65
2022/03/09 08:42:20;;;;;;;30.40;16.02;;;;;;;;;;4990629;28;20513;-66
2022/03/09 08:44:45;;;;;;;31.23;16.70;;;;;;;;;;4990700;28;20022;-66
2022/03/09 08:47:11;;;;;;;32.42;16.98;;;;;;;;;;4990770;28;20086;-65
2022/03/09 08:49:39;;;;;;;34.88;17.17;;;;;;;;;;4990559;28;20431;-65
2022/03/09 08:52:06;;;;;;;33.63;17.17;;;;;;;;;;4990578;28;20041;-65
2022/03/09 08:54:32;;;;;;;35.58;17.50;;;;;;;;;;4990823;28;20018;-66
2022/03/09 08:56:57;;;;;;;31.85;17.65;;;;;;;;;;4991051;28;20393;-66
2022/03/09 08:59:23;;;;;;;36.15;16.88;;;;;;;;;;4990949;28;20052;-67
2022/03/09 09:01:49;;;;;;;37.55;17.58;;;;;;;;;;5030249;28;20026;-68
2022/03/09 09:04:16;;;;;;;34.67;16.58;;;;;;;;;;5008855;28;20462;-67
2022/03/09 09:06:43;;;;;;;33.35;17.17;;;;;;;;;;5010068;28;20021;-67
2022/03/09 09:09:08;;;;;;;34.30;17.95;;;;;;;;;;5009981;28;20096;-67
2022/03/09 09:11:34;;;;;;;28.98;16.85;;;;;;;;;;5009969;28;20413;-66
2022/03/09 09:13:59;;;;;;;30.23;17.08;;;;;;;;;;5010018;28;20022;-66
2022/03/09 09:16:25;;;;;;;32.55;17.33;;;;;;;;;;5010676;28;20021;-66
2022/03/09 09:18:50;;;;;;;30.90;15.27;;;;;;;;;;5014045;28;20120;-67
2022/03/09 09:21:16;;;;;;;26.83;13.95;;;;;;;;;;5013739;28;20030;-66
2022/03/09 09:23:41;;;;;;;25.77;14.68;;;;;;;;;;5013869;28;20057;-67
2022/03/09 09:26:07;;;;;;;27.65;14.48;;;;;;;;;;5014258;28;20030;-64
2022/03/09 09:28:32;;;;;;;24.98;14.38;;;;;;;;;;5014008;28;20604;-66
2022/03/09 09:30:57;;;;;;;27.73;14.43;;;;;;;;;;5014031;28;20498;-67
2022/03/09 09:33:23;;;;;;;26.20;14.85;;;;;;;;;;5013680;28;20038;-66
2022/03/09 09:35:48;;;;;;;25.08;14.45;;;;;;;;;;5011791;28;20078;-66
2022/03/09 09:38:14;;;;;;;29.25;14.68;;;;;;;;;;5013066;28;20049;-65
2022/03/09 09:40:41;;;;;;;28.98;15.30;;;;;;;;;;5013560;28;20037;-65
2022/03/09 09:43:10;;;;;;;27.15;14.93;;;;;;;;;;5013308;28;20087;-65
2022/03/09 09:45:36;;;;;;;31.15;16.02;;;;;;;;;;5013326;28;20029;-66
2022/03/09 09:48:06;;;;;;;35.67;17.20;;;;;;;;;;5012164;28;20083;-66
2022/03/09 09:50:32;;;;;;;31.43;16.10;;;;;;;;;;5013446;28;20022;-68
2022/03/09 09:52:57;;;;;;;29.50;16.02;;;;;;;;;;5013445;28;20289;-68
2022/03/09 09:55:27;;;;;;;28.35;15.98;;;;;;;;;;5013692;28;20030;-64
2022/03/09 09:57:54;;;;;;;31.80;16.10;;;;;;;;;;5013510;28;20022;-68
2022/03/09 10:00:20;;;;;;;28.77;15.75;;;;;;;;;;5013184;28;20164;-67
2022/03/09 10:02:45;;;;;;;31.27;15.90;;;;;;;;;;5013419;28;20120;-67
2022/03/09 10:05:14;;;;;;;27.48;15.07;;;;;;;;;;5013130;28;20089;-66
2022/03/09 10:08:04;;;;;;;27.35;15.65;;;;;;;;;;5013568;28;20177;-66
2022/03/09 10:10:35;;;;;;;27.80;14.40;;;;;;;;;;5013067;28;20532;-66
2022/03/09 10:13:13;;;;;;;25.02;15.05;;;;;;;;;;5013118;28;20037;-66
2022/03/09 10:15:40;;;;;;;24.23;14.13;;;;;;;;;;5012925;28;20030;-65
2022/03/09 10:18:14;;;;;;;24.38;14.18;;;;;;;;;;5013049;28;20026;-70
2022/03/09 10:20:40;;;;;;;25.02;15.00;;;;;;;;;;5012996;28;20033;-66
2022/03/09 10:23:05;;;;;;;26.67;14.68;;;;;;;;;;5013449;28;20047;-68
2022/03/09 10:25:31;;;;;;;25.05;14.38;;;;;;;;;;5013495;28;20109;-64
2022/03/09 10:27:56;;;;;;;26.17;13.60;;;;;;;;;;5012596;28;20494;-67
2022/03/09 10:30:29;;;;;;;24.80;14.45;;;;;;;;;;5012402;28;20057;-63
2022/03/09 10:32:57;;;;;;;21.83;13.77;;;;;;;;;;5012778;28;20069;-65
2022/03/09 10:35:31;;;;;;;18.63;11.45;;;;;;;;;;5012655;28;20467;-65
2022/03/09 10:37:57;;;;;;;22.95;13.65;;;;;;;;;;5012960;28;20035;-65
2022/03/09 10:40:23;;;;;;;25.10;13.77;;;;;;;;;;5012704;28;20033;-64
2022/03/09 10:42:50;;;;;;;22.00;13.75;;;;;;;;;;5012900;28;20390;-68
2022/03/09 10:45:17;;;;;;;22.75;13.32;;;;;;;;;;5012214;28;20036;-64
2022/03/09 10:47:42;;;;;;;24.48;13.70;;;;;;;;;;5012670;28;20026;-64
2022/03/09 10:50:30;;;;;;;21.67;13.93;;;;;;;;;;5012162;28;20040;-64
2022/03/09 10:53:04;;;;;;;22.35;13.93;;;;;;;;;;5010876;28;20057;-65
2022/03/09 10:55:32;;;;;;;26.13;14.05;;;;;;;;;;5012039;28;20018;-67
2022/03/09 10:58:21;;;;;;;23.33;13.40;;;;;;;;;;5012545;28;20101;-65
2022/03/09 11:00:54;;;;;;;24.48;13.32;;;;;;;;;;5011722;28;20049;-65
2022/03/09 11:03:24;;;;;;;25.08;13.18;;;;;;;;;;5012186;28;20026;-65
2022/03/09 11:06:02;;;;;;;25.08;14.25;;;;;;;;;;5011867;28;20125;-65
2022/03/09 11:08:34;;;;;;;23.80;13.68;;;;;;;;;;5012313;28;20717;-68
2022/03/09 11:10:59;;;;;;;23.42;13.88;;;;;;;;;;5011846;28;20113;-66
2022/03/09 11:13:27;;;;;;;20.77;13.00;;;;;;;;;;5012248;28;20109;-65
2022/03/09 11:15:54;;;;;;;25.10;14.07;;;;;;;;;;5011781;28;20098;-65
2022/03/09 11:18:22;;;;;;;25.05;13.88;;;;;;;;;;5012390;28;20036;-65
2022/03/09 11:20:59;;;;;;;27.52;14.32;;;;;;;;;;5011679;28;20026;-65
2022/03/09 11:23:27;;;;;;;24.15;14.80;;;;;;;;;;5011839;28;20026;-65
2022/03/09 11:26:10;;;;;;;29.88;14.73;;;;;;;;;;5011403;28;20478;-65
2022/03/09 11:28:43;;;;;;;23.20;13.10;;;;;;;;;;5011692;28;20096;-65
2022/03/09 11:31:20;;;;;;;25.63;15.05;;;;;;;;;;5011481;28;20022;-65
2022/03/09 11:33:48;;;;;;;23.55;14.52;;;;;;;;;;5012098;28;20121;-64
2022/03/09 11:36:20;;;;;;;30.35;15.50;;;;;;;;;;5011544;28;20109;-65
2022/03/09 11:38:48;;;;;;;26.23;15.43;;;;;;;;;;5010991;28;20057;-65
2022/03/09 11:41:24;;;;;;;25.45;14.75;;;;;;;;;;5010919;28;20033;-66
2022/03/09 11:43:52;;;;;;;24.00;14.27;;;;;;;;;;5011670;28;20025;-66
2022/03/09 11:46:19;;;;;;;25.33;15.30;;;;;;;;;;5011178;28;20528;-65
2022/03/09 11:48:55;;;;;;;23.50;14.55;;;;;;;;;;5009760;28;20052;-68
2022/03/09 11:51:23;;;;;;;23.80;15.00;;;;;;;;;;5009384;28;20584;-65
2022/03/09 11:53:54;;;;;;;25.13;14.43;;;;;;;;;;5009693;28;20190;-65
2022/03/09 11:56:40;;;;;;;24.63;14.25;;;;;;;;;;5009200;28;20028;-65
2022/03/09 11:59:27;;;;;;;27.45;15.90;;;;;;;;;;5009803;28;20369;-65
2022/03/09 12:01:59;;;;;;;26.35;14.63;;;;;;;;;;5008989;28;20038;-64
2022/03/09 12:04:40;;;;;;;24.30;15.25;;;;;;;;;;5009427;28;20032;-64
2022/03/09 12:07:10;;;;;;;23.90;14.13;;;;;;;;;;5010286;28;20032;-65
2022/03/09 12:09:54;;;;;;;26.10;14.75;;;;;;;;;;5011048;28;20022;-65
2022/03/09 12:12:19;;;;;;;23.23;14.30;;;;;;;;;;5010615;28;20032;-65
2022/03/09 12:15:20;;;;;;;25.20;14.73;;;;;;;;;;5010633;28;20022;-65
2022/03/09 12:17:50;;;;;;;26.90;14.13;;;;;;;;;;4988163;28;20062;-66
2022/03/09 12:20:18;;;;;;;25.50;14.30;;;;;;;;;;5006649;28;20113;-64
2022/03/09 12:22:59;;;;;;;25.58;14.90;;;;;;;;;;5010919;28;20030;-68
2022/03/09 12:25:39;;;;;;;24.50;14.50;;;;;;;;;;5010923;28;20423;-65
2022/03/09 12:28:31;;;;;;;25.58;15.30;;;;;;;;;;5010812;28;20037;-64
2022/03/09 12:31:03;;;;;;;26.70;16.00;;;;;;;;;;5010096;28;20030;-65
2022/03/09 12:33:32;;;;;;;24.20;14.90;;;;;;;;;;5010690;28;20521;-65
2022/03/09 12:36:13;;;;;;;25.63;15.82;;;;;;;;;;5010389;28;20514;-65
2022/03/09 12:38:48;;;;;;;29.83;16.25;;;;;;;;;;5010821;28;20037;-64
2022/03/09 12:41:41;;;;;;;31.20;16.40;;;;;;;;;;5009980;28;20545;-65
2022/03/09 12:44:09;;;;;;;29.23;15.88;;;;;;;;;;5010753;28;20092;-65
2022/03/09 12:46:37;;;;;;;26.98;15.75;;;;;;;;;;5010354;28;20060;-64
2022/03/09 12:49:11;;;;;;;28.27;16.58;;;;;;;;;;5010344;28;20080;-65
2022/03/09 12:51:39;;;;;;;27.52;15.55;;;;;;;;;;5010433;28;20045;-64
2022/03/09 12:54:05;;;;;;;27.38;16.00;;;;;;;;;;5010448;28;20021;-66
2022/03/09 12:56:33;;;;;;;30.92;16.50;;;;;;;;;;5010584;28;20040;-64
2022/03/09 12:59:16;;;;;;;27.48;15.90;;;;;;;;;;5010379;28;20026;-64
2022/03/09 13:01:53;;;;;;;30.45;16.45;;;;;;;;;;5009733;28;20028;-65
2022/03/09 13:04:23;;;;;;;25.13;15.25;;;;;;;;;;5010150;28;20026;-68
2022/03/09 13:06:50;;;;;;;25.65;15.32;;;;;;;;;;5010177;28;20029;-68
2022/03/09 13:09:23;;;;;;;27.08;16.70;;;;;;;;;;5010409;28;20022;-65
2022/03/09 13:11:49;;;;;;;28.35;15.80;;;;;;;;;;5009793;28;20509;-64
2022/03/09 13:14:19;;;;;;;29.00;16.08;;;;;;;;;;5010292;28;20030;-65
2022/03/09 13:16:45;;;;;;;28.02;15.70;;;;;;;;;;5009827;28;20018;-64
2022/03/09 13:19:14;;;;;;;27.67;15.32;;;;;;;;;;5010059;28;20037;-64
2022/03/09 13:21:39;;;;;;;28.90;16.10;;;;;;;;;;5009611;28;20061;-64
2022/03/09 13:24:07;;;;;;;28.42;16.40;;;;;;;;;;5009828;28;20506;-65
2022/03/09 13:26:40;;;;;;;26.30;15.48;;;;;;;;;;5010039;28;20022;-65
2022/03/09 13:29:16;;;;;;;27.27;16.23;;;;;;;;;;5010256;28;20022;-64
2022/03/09 13:31:43;;;;;;;31.02;16.45;;;;;;;;;;5009403;28;20026;-64
2022/03/09 13:34:16;;;;;;;31.30;16.25;;;;;;;;;;5009893;28;20053;-64
2022/03/09 13:36:43;;;;;;;29.05;15.48;;;;;;;;;;5009660;28;20092;-65
2022/03/09 13:39:10;;;;;;;27.88;16.02;;;;;;;;;;5009868;28;20034;-65
2022/03/09 13:41:40;;;;;;;28.58;16.20;;;;;;;;;;5009398;28;20277;-67
2022/03/09 13:44:27;;;;;;;30.95;16.25;;;;;;;;;;5009952;28;20042;-64
2022/03/09 13:47:07;;;;;;;26.20;15.65;;;;;;;;;;5009476;28;20030;-64
2022/03/09 13:49:47;;;;;;;29.38;16.08;;;;;;;;;;5010026;28;20106;-65
2022/03/09 13:52:31;;;;;;;28.80;14.80;;;;;;;;;;5009398;28;20109;-64
2022/03/09 13:55:00;;;;;;;26.20;15.73;;;;;;;;;;5010040;28;20486;-63
2022/03/09 13:57:39;;;;;;;24.08;14.75;;;;;;;;;;5009497;28;20096;-62
2022/03/09 14:00:30;;;;;;;30.15;17.13;;;;;;;;;;5009891;28;20026;-64
2022/03/09 14:03:05;;;;;;;27.25;16.00;;;;;;;;;;5010755;28;20080;-64
2022/03/09 14:05:32;;;;;;;27.67;15.88;;;;;;;;;;5012203;28;20026;-64
2022/03/09 14:07:58;;;;;;;30.73;16.42;;;;;;;;;;5004790;28;20041;-64
2022/03/09 14:10:31;;;;;;;25.10;15.55;;;;;;;;;;5013330;28;20386;-63
2022/03/09 14:13:16;;;;;;;28.80;16.60;;;;;;;;;;5012622;28;20045;-64
2022/03/09 14:15:43;;;;;;;28.20;17.08;;;;;;;;;;4993271;28;20026;-65
2022/03/09 14:18:09;;;;;;;28.35;16.55;;;;;;;;;;4993514;28;20038;-65
2022/03/09 14:20:34;;;;;;;29.65;17.25;;;;;;;;;;4993751;28;20030;-65
2022/03/09 14:23:00;;;;;;;27.38;16.80;;;;;;;;;;5004873;28;20029;-64